^^
Grace C. Lehan Memorial Weather Station Historical Data
Daily Summary for September 6, 2021 Units:  English    Metric   Both
Daily Weekly Monthly Yearly
  High: Low: Average:
Temperature: 65.5 °F 47.9 °F 56.6 °F
Dew Point: 47.7 °F 35.7 °F 42.2 °F
Humidity: 88% 37% 61%
Wind Speed: 9.2mph 0mph 2.6mph
Wind Gust: 26mph - -
Wind- - NW
Pressure: 29.92 in 29.74 in -
Precipitation: 0.00 in    
 
 
Tabular Data for September 6, 2021
Time Temperature Dew Point Pressure Wind Wind Speed Wind Gust Humidity Rainfall Rate (Hourly) solar
00:04 52.7 °F 47.7 °F 29.74 in NW 2 mph 2 mph 83% 0.00 in 0 W/m2
00:09 52.7 °F 47.6 °F 29.75 in NW 2.3 mph 12 mph 83% 0.00 in 0 W/m2
00:14 52.5 °F 47.4 °F 29.75 in NNW 1 mph 12 mph 82.5% 0.00 in 0 W/m2
00:19 52.4 °F 47.1 °F 29.75 in NNW 1.6 mph 12 mph 82% 0.00 in 0 W/m2
00:24 52.4 °F 47.1 °F 29.75 in NW 0.6 mph 12 mph 82% 0.00 in 0 W/m2
00:29 52.3 °F 47 °F 29.75 in Calm   12 mph 82.2% 0.00 in 0 W/m2
00:34 52.3 °F 47.1 °F 29.75 in NW 1 mph 12 mph 82.3% 0.00 in 0 W/m2
00:39 52.2 °F 47 °F 29.75 in NW 0.8 mph 7 mph 82.4% 0.00 in 0 W/m2
00:44 52.2 °F 47.2 °F 29.75 in NW 2.7 mph 11 mph 83% 0.00 in 0 W/m2
00:49 52.2 °F 47.2 °F 29.75 in NW 2.6 mph 11 mph 83% 0.00 in 0 W/m2
00:54 52.1 °F 47.1 °F 29.75 in NW 2.5 mph 11 mph 83% 0.00 in 0 W/m2
00:59 52.1 °F 47 °F 29.75 in NW 3.3 mph 16 mph 82.7% 0.00 in 0 W/m2
01:04 52 °F 46.6 °F 29.75 in NW 4.6 mph 16 mph 82% 0.00 in 0 W/m2
01:09 51.9 °F 46.6 °F 29.75 in WNW 1.9 mph 15 mph 82% 0.00 in 0 W/m2
01:14 51.9 °F 46.8 °F 29.75 in WNW 0.8 mph 15 mph 82.9% 0.00 in 0 W/m2
01:18 51.8 °F 46.7 °F 29.75 in NNW 1.6 mph 15 mph 82.9% 0.00 in 0 W/m2
01:24 51.6 °F 46.7 °F 29.76 in NW 1.3 mph 15 mph 83% 0.00 in 0 W/m2
01:29 51.5 °F 46.5 °F 29.76 in NNW 1.4 mph 15 mph 83% 0.00 in 0 W/m2
01:33 51.5 °F 46.5 °F 29.76 in NW 4.5 mph 15 mph 83% 0.00 in 0 W/m2
01:39 51.5 °F 46.5 °F 29.76 in NW 0.8 mph 11 mph 83% 0.00 in 0 W/m2
01:44 51.5 °F 46.5 °F 29.75 in NW 3.1 mph 11 mph 83% 0.00 in 0 W/m2
01:49 51.5 °F 46.5 °F 29.75 in NW 1.4 mph 11 mph 83% 0.00 in 0 W/m2
01:54 51.5 °F 46.5 °F 29.75 in NW 2.5 mph 11 mph 83% 0.00 in 0 W/m2
01:59 51.4 °F 46.5 °F 29.76 in NW 1.8 mph 11 mph 83% 0.00 in 0 W/m2
02:04 51.4 °F 46.4 °F 29.76 in NW 1.2 mph 11 mph 83% 0.00 in 0 W/m2
02:09 51.4 °F 46.4 °F 29.76 in NW 3 mph 11 mph 83% 0.00 in 0 W/m2
02:14 51.4 °F 46.4 °F 29.76 in NW 2.7 mph 11 mph 83% 0.00 in 0 W/m2
02:19 51.4 °F 46.4 °F 29.76 in NW 0.3 mph 11 mph 83% 0.00 in 0 W/m2
02:24 51.3 °F 46.3 °F 29.76 in NW 1.8 mph 11 mph 83% 0.00 in 0 W/m2
02:29 51.2 °F 46.2 °F 29.76 in NW 1.6 mph 11 mph 83% 0.00 in 0 W/m2
02:34 51.1 °F 46.2 °F 29.76 in NNW 0.4 mph 11 mph 83% 0.00 in 0 W/m2
02:39 51 °F 46 °F 29.76 in NNW 0.1 mph 4 mph 83% 0.00 in 0 W/m2
02:44 50.9 °F 45.9 °F 29.76 in NNW 1.8 mph 7 mph 83% 0.00 in 0 W/m2
02:49 50.9 °F 45.9 °F 29.76 in NW 1.9 mph 11 mph 83% 0.00 in 0 W/m2
02:54 50.9 °F 46 °F 29.77 in NW 2.2 mph 11 mph 83% 0.00 in 0 W/m2
02:59 51 °F 46 °F 29.77 in NNW 0.4 mph 11 mph 83% 0.00 in 0 W/m2
03:04 51 °F 46 °F 29.77 in NW 0.5 mph 11 mph 83% 0.00 in 0 W/m2
03:09 51 °F 46 °F 29.77 in WNW 2.9 mph 10 mph 83% 0.00 in 0 W/m2
03:14 50.9 °F 45.9 °F 29.77 in WNW 2 mph 10 mph 83% 0.00 in 0 W/m2
03:19 50.8 °F 45.8 °F 29.77 in WNW 1.7 mph 10 mph 83% 0.00 in 0 W/m2
03:24 50.6 °F 45.7 °F 29.77 in WNW 1.9 mph 10 mph 83% 0.00 in 0 W/m2
03:29 50.5 °F 45.5 °F 29.77 in NW 3.3 mph 11 mph 83% 0.00 in 0 W/m2
03:34 50.5 °F 45.5 °F 29.77 in NW 2 mph 11 mph 83% 0.00 in 0 W/m2
03:39 50.4 °F 45.4 °F 29.77 in WNW 2.7 mph 13 mph 83% 0.00 in 0 W/m2
03:43 50.4 °F 45.4 °F 29.77 in WNW 1.8 mph 13 mph 83% 0.00 in 0 W/m2
03:49 50.4 °F 45.4 °F 29.77 in WNW 1.9 mph 13 mph 83% 0.00 in 0 W/m2
03:54 50.3 °F 45.4 °F 29.77 in NW 1.1 mph 13 mph 83% 0.00 in 0 W/m2
03:58 50.3 °F 45.3 °F 29.77 in Calm   13 mph 83% 0.00 in 0 W/m2
04:09 50.1 °F 45.2 °F 29.78 in WNW 0.6 mph 5 mph 83% 0.00 in 0 W/m2
04:14 50 °F 45.3 °F 29.78 in NW 1.4 mph 9 mph 83.9% 0.00 in 0 W/m2
04:19 49.9 °F 45.3 °F 29.78 in NNW 1.5 mph 9 mph 84% 0.00 in 0 W/m2
04:24 49.9 °F 45.3 °F 29.77 in NW 0.4 mph 9 mph 84% 0.00 in 0 W/m2
04:29 49.9 °F 45.3 °F 29.77 in NW 0.1 mph 9 mph 84% 0.00 in 0 W/m2
04:34 49.9 °F 45.2 °F 29.77 in NW 0.1 mph 9 mph 84% 0.00 in 0 W/m2
04:39 49.7 °F 45.1 °F 29.78 in NW 0.4 mph 5 mph 84% 0.00 in 0 W/m2
04:44 49.6 °F 45 °F 29.78 in Calm   5 mph 84% 0.00 in 0 W/m2
04:49 49.5 °F 44.9 °F 29.78 in Calm   5 mph 84% 0.00 in 0 W/m2
04:54 49.4 °F 44.8 °F 29.78 in Calm   5 mph 84% 0.00 in 0 W/m2
04:59 49.3 °F 44.7 °F 29.79 in Calm   5 mph 84% 0.00 in 0 W/m2
05:04 49.2 °F 44.6 °F 29.79 in Calm   5 mph 84% 0.00 in 0 W/m2
05:09 49 °F 44.6 °F 29.79 in Calm     84.6% 0.00 in 0 W/m2
05:13 49 °F 44.7 °F 29.79 in Calm     85% 0.00 in 0 W/m2
05:19 48.9 °F 44.7 °F 29.79 in Calm     85.4% 0.00 in 0 W/m2
05:24 48.9 °F 44.9 °F 29.79 in Calm     86% 0.00 in 0 W/m2
05:29 48.8 °F 44.8 °F 29.79 in Calm     86% 0.00 in 0 W/m2
05:34 48.7 °F 44.7 °F 29.79 in Calm     86% 0.00 in 0 W/m2
05:39 48.5 °F 44.5 °F 29.79 in Calm     86% 0.00 in 0 W/m2
05:44 48.4 °F 44.4 °F 29.80 in NW 0.3 mph 4 mph 86% 0.00 in 5 W/m2
05:48 48.3 °F 44.3 °F 29.80 in Calm   4 mph 86% 0.00 in 7 W/m2
05:54 48.2 °F 44.4 °F 29.80 in Calm   4 mph 86.7% 0.00 in 11 W/m2
05:59 48.1 °F 44.3 °F 29.81 in NW 0.2 mph 4 mph 86.7% 0.00 in 14 W/m2
06:04 48 °F 44.3 °F 29.81 in NW 0.3 mph 4 mph 87% 0.00 in 18 W/m2
06:09 47.9 °F 44.2 °F 29.81 in WNW 0.8 mph 4 mph 87% 0.00 in 21 W/m2
06:14 47.9 °F 44.2 °F 29.81 in West 0.4 mph 4 mph 87% 0.00 in 28 W/m2
06:19 47.9 °F 44.2 °F 29.81 in Calm   4 mph 87% 0.00 in 39 W/m2
06:24 47.9 °F 44.4 °F 29.82 in Calm   4 mph 87.7% 0.00 in 51 W/m2
06:29 48 °F 44.6 °F 29.82 in Calm   4 mph 88% 0.00 in 65 W/m2
06:34 48.1 °F 44.8 °F 29.82 in Calm   4 mph 88% 0.00 in 116 W/m2
06:39 48.4 °F 45 °F 29.83 in Calm     88% 0.00 in 151 W/m2
06:44 49 °F 45.6 °F 29.83 in West 0.8 mph 5 mph 88% 0.00 in 197 W/m2
06:49 49.9 °F 46.3 °F 29.83 in WNW 0.5 mph 5 mph 87.4% 0.00 in 213 W/m2
06:54 50.8 °F 46.4 °F 29.83 in WNW 2.9 mph 8 mph 84.8% 0.00 in 213 W/m2
06:59 51.3 °F 46 °F 29.83 in WNW 3.5 mph 11 mph 81.9% 0.00 in 279 W/m2
07:04 51.6 °F 45.9 °F 29.83 in WNW 3.5 mph 11 mph 80.9% 0.00 in 279 W/m2
07:14 52.3 °F 45.8 °F 29.84 in WNW 2.6 mph 11 mph 78.4% 0.00 in 281 W/m2
07:19 52.3 °F 45.6 °F 29.84 in WNW 1 mph 11 mph 77.9% 0.00 in 325 W/m2
07:24 52.3 °F 45.7 °F 29.85 in NW 1.9 mph 12 mph 77.9% 0.00 in 325 W/m2
07:29 52.4 °F 45.2 °F 29.85 in NW 0.9 mph 12 mph 76.4% 0.00 in 123 W/m2
07:34 52.5 °F 45.4 °F 29.85 in WNW 2.3 mph 12 mph 76.5% 0.00 in 366 W/m2
07:39 52.7 °F 45.1 °F 29.86 in WNW 4 mph 10 mph 75.3% 0.00 in 67 W/m2
07:44 52.6 °F 44.7 °F 29.86 in WNW 2.6 mph 13 mph 74.3% 0.00 in 83 W/m2
07:49 52.4 °F 44.3 °F 29.87 in WNW 2.6 mph 13 mph 73.8% 0.00 in 125 W/m2
07:53 52.1 °F 43.8 °F 29.86 in WNW 5.9 mph 13 mph 73.2% 0.00 in 195 W/m2
08:08 52.7 °F 43.9 °F 29.87 in NW 2.9 mph 8 mph 72% 0.00 in 220 W/m2
08:14 53.1 °F 44.6 °F 29.87 in NW 1.8 mph 10 mph 72.8% 0.00 in 548 W/m2
08:19 53.9 °F 44.7 °F 29.87 in WNW 4.9 mph 14 mph 71% 0.00 in 582 W/m2
08:24 54.6 °F 44.5 °F 29.88 in WNW 4.5 mph 14 mph 68.6% 0.00 in 680 W/m2
08:29 55.4 °F 44.8 °F 29.88 in WNW 6.3 mph 14 mph 67.4% 0.00 in 633 W/m2
08:34 55.6 °F 44.7 °F 29.88 in WNW 4.1 mph 14 mph 66.8% 0.00 in 677 W/m2
08:39 56 °F 45.5 °F 29.88 in WNW 2.1 mph 14 mph 67.8% 0.00 in 710 W/m2
08:43 56.6 °F 45.7 °F 29.88 in WNW 2.3 mph 14 mph 66.8% 0.00 in 710 W/m2
08:49 57.1 °F 45.4 °F 29.88 in WNW 4.3 mph 14 mph 64.9% 0.00 in 691 W/m2
08:54 57.2 °F 45.3 °F 29.88 in WNW 4.5 mph 14 mph 64.2% 0.00 in 668 W/m2
08:59 57.5 °F 45.3 °F 29.88 in WNW 3.2 mph 14 mph 63.7% 0.00 in 643 W/m2
09:04 58 °F 46 °F 29.88 in NW 5.4 mph 14 mph 64.2% 0.00 in 649 W/m2
09:09 58.4 °F 44 °F 29.88 in NW 8.9 mph 24 mph 58.8% 0.00 in 664 W/m2
09:14 58.3 °F 43.8 °F 29.88 in NW 7 mph 24 mph 58.4% 0.00 in 684 W/m2
09:19 58.4 °F 43.8 °F 29.89 in NW 8.8 mph 24 mph 58.3% 0.00 in 726 W/m2
09:24 58.4 °F 43.5 °F 29.88 in NW 8.2 mph 26 mph 57.7% 0.00 in 740 W/m2
09:29 58.4 °F 43.7 °F 29.88 in NNW 6.2 mph 26 mph 58% 0.00 in 812 W/m2
09:34 58.7 °F 43.8 °F 29.88 in NNW 7.4 mph 26 mph 57.7% 0.00 in 860 W/m2
09:39 58.9 °F 44.2 °F 29.88 in NW 5.4 mph 25 mph 58.1% 0.00 in 860 W/m2
09:43 58.9 °F 43.3 °F 29.88 in NNW 4.7 mph 25 mph 56.2% 0.00 in 765 W/m2
09:49 59.3 °F 43.9 °F 29.88 in NW 3.8 mph 25 mph 56.7% 0.00 in 1005 W/m2
09:54 59.6 °F 43.2 °F 29.88 in NNW 7 mph 25 mph 54.5% 0.00 in 1005 W/m2
09:59 59.1 °F 42.6 °F 29.88 in NW 3.4 mph 25 mph 54.1% 0.00 in 330 W/m2
10:04 58.4 °F 41.9 °F 29.89 in NNW 5.5 mph 25 mph 54.1% 0.00 in 366 W/m2
10:09 57.9 °F 41.7 °F 29.89 in NW 5.5 mph 17 mph 54.8% 0.00 in 397 W/m2
10:14 57.5 °F 41.5 °F 29.89 in NW 6 mph 17 mph 55% 0.00 in 932 W/m2
10:19 57.9 °F 42.4 °F 29.89 in NW 6.2 mph 17 mph 56.3% 0.00 in 1027 W/m2
10:24 58.7 °F 42.3 °F 29.88 in NW 5.2 mph 17 mph 54.5% 0.00 in 1111 W/m2
10:29 58.9 °F 41.9 °F 29.88 in NW 2 mph 17 mph 53.2% 0.00 in 250 W/m2
10:34 58.7 °F 42.1 °F 29.89 in NW 7.6 mph 22 mph 54% 0.00 in 1021 W/m2
10:39 58.7 °F 40.7 °F 29.88 in NW 9 mph 22 mph 51.2% 0.00 in 1021 W/m2
10:44 58.6 °F 40.9 °F 29.88 in NW 5.3 mph 22 mph 51.9% 0.00 in 1021 W/m2
10:49 59.1 °F 42.7 °F 29.88 in NW 5.3 mph 22 mph 54.4% 0.00 in 1081 W/m2
10:53 59.9 °F 43 °F 29.88 in NW 3.4 mph 22 mph 53.4% 0.00 in 1090 W/m2
10:59 60.9 °F 43.3 °F 29.88 in NW 5.2 mph 22 mph 52.1% 0.00 in 1150 W/m2
11:04 61.1 °F 42.7 °F 29.87 in NW 2.3 mph 22 mph 50.7% 0.00 in 1276 W/m2
11:09 61.2 °F 43.6 °F 29.87 in NW 3 mph 11 mph 52.3% 0.00 in 1276 W/m2
11:14 61.4 °F 43.9 °F 29.87 in NW 2.3 mph 11 mph 52.5% 0.00 in 1116 W/m2
11:19 61.6 °F 42.9 °F 29.87 in NW 3 mph 13 mph 50.1% 0.00 in 1032 W/m2
11:24 61.9 °F 43.7 °F 29.88 in NW 3.9 mph 16 mph 51.2% 0.00 in 1016 W/m2
11:29 62.6 °F 45.2 °F 29.87 in NW 3 mph 16 mph 52.9% 0.00 in 972 W/m2
11:34 63.2 °F 42.8 °F 29.87 in NW 4 mph 19 mph 47.3% 0.00 in 993 W/m2
11:39 63.3 °F 42.9 °F 29.87 in NW 5.2 mph 19 mph 47.3% 0.00 in 974 W/m2
11:44 63.2 °F 42.8 °F 29.87 in NW 5.8 mph 19 mph 47.3% 0.00 in 988 W/m2
11:49 63 °F 43.5 °F 29.88 in NW 4.3 mph 19 mph 49% 0.00 in 988 W/m2
11:53 63.2 °F 43 °F 29.88 in NW 4.7 mph 19 mph 47.6% 0.00 in 991 W/m2
11:59 63.2 °F 41.7 °F 29.88 in WNW 7.4 mph 19 mph 45.3% 0.00 in 986 W/m2
12:00 62.9 °F 41.3 °F 29.87 in WNW 6 mph 19 mph 45% 0.00 in 984 W/m2
12:09 62.8 °F 41.8 °F 29.88 in NW 5 mph 17 mph 46.1% 0.00 in 995 W/m2
12:14 62.9 °F 41.1 °F 29.87 in NW 8.8 mph 22 mph 44.8% 0.00 in 995 W/m2
12:19 62.5 °F 40.2 °F 29.87 in WNW 9.2 mph 22 mph 43.8% 0.00 in 1000 W/m2
12:24 62.3 °F 41 °F 29.87 in NW 6.2 mph 22 mph 45.4% 0.00 in 1002 W/m2
12:29 62.5 °F 41.6 °F 29.87 in North 3.5 mph 22 mph 46.3% 0.00 in 1004 W/m2
12:34 62.9 °F 42.4 °F 29.86 in NNW 3.9 mph 22 mph 47% 0.00 in 1004 W/m2
12:39 63.2 °F 41.5 °F 29.86 in NW 5 mph 14 mph 44.8% 0.00 in 1013 W/m2
12:44 63.5 °F 40.8 °F 29.86 in NW 5.4 mph 16 mph 43.3% 0.00 in 1013 W/m2
12:49 63.7 °F 39.8 °F 29.87 in NW 5.6 mph 17 mph 41.4% 0.00 in 1011 W/m2
12:54 63.7 °F 40.9 °F 29.87 in NW 4.4 mph 17 mph 43.2% 0.00 in 1013 W/m2
12:59 63.8 °F 40.4 °F 29.87 in NW 5.2 mph 17 mph 42.3% 0.00 in 1009 W/m2
13:04 63.8 °F 41.3 °F 29.87 in NW 2.8 mph 17 mph 43.7% 0.00 in 1011 W/m2
13:09 64 °F 41.9 °F 29.86 in North 3.9 mph 12 mph 44.5% 0.00 in 1007 W/m2
13:14 64.3 °F 42.2 °F 29.86 in NW 2.2 mph 12 mph 44.5% 0.00 in 1007 W/m2
13:19 64.6 °F 41.7 °F 29.86 in WNW 5.8 mph 16 mph 43.1% 0.00 in 1005 W/m2
13:24 64.7 °F 41.1 °F 29.85 in NW 6.8 mph 16 mph 42% 0.00 in 1005 W/m2
13:29 64.6 °F 40.8 °F 29.85 in NW 3.9 mph 16 mph 41.7% 0.00 in 1004 W/m2
13:34 64.7 °F 41.2 °F 29.85 in WNW 4.5 mph 16 mph 42.3% 0.00 in 1002 W/m2
13:39 64.6 °F 40.6 °F 29.85 in WNW 3.5 mph 12 mph 41.3% 0.00 in 1000 W/m2
13:44 64.7 °F 40.4 °F 29.85 in NW 3.2 mph 12 mph 41% 0.00 in 993 W/m2
13:49 64.7 °F 41.3 °F 29.85 in WNW 3.2 mph 12 mph 42.3% 0.00 in 990 W/m2
13:54 64.9 °F 40.6 °F 29.85 in WNW 6 mph 15 mph 41% 0.00 in 988 W/m2
13:59 64.9 °F 39.6 °F 29.85 in WNW 4 mph 15 mph 39.3% 0.00 in 981 W/m2
14:03 65 °F 40.4 °F 29.85 in NW 4.2 mph 15 mph 40.5% 0.00 in 976 W/m2
16:09 65.5 °F 38.5 °F 29.84 in WNW 0.7 mph 7 mph 37% 0.00 in 76 W/m2
16:14 65.3 °F 39 °F 29.84 in WNW 4.2 mph 12 mph 37.8% 0.00 in 74 W/m2
16:19 65.3 °F 39.6 °F 29.84 in WNW 1.3 mph 12 mph 38.8% 0.00 in 67 W/m2
16:24 65.3 °F 40.3 °F 29.85 in WNW 3 mph 13 mph 39.9% 0.00 in 67 W/m2
16:29 65.4 °F 40.1 °F 29.85 in NW 2 mph 13 mph 39.4% 0.00 in 70 W/m2
16:34 65.3 °F 39 °F 29.85 in WNW 4.2 mph 13 mph 37.8% 0.00 in 86 W/m2
16:39 65.1 °F 39 °F 29.85 in WNW 1.8 mph 11 mph 38.2% 0.00 in 93 W/m2
16:44 64.9 °F 38.2 °F 29.85 in NW 2.7 mph 11 mph 37.2% 0.00 in 88 W/m2
16:49 64.9 °F 39.1 °F 29.84 in WNW 2.2 mph 11 mph 38.6% 0.00 in 72 W/m2
16:54 64.9 °F 39.1 °F 29.84 in NW 1.5 mph 11 mph 38.7% 0.00 in 72 W/m2
16:59 64.8 °F 38.7 °F 29.84 in WNW 3.5 mph 11 mph 38.2% 0.00 in 72 W/m2
17:04 64.6 °F 38.7 °F 29.84 in WNW 6.9 mph 15 mph 38.4% 0.00 in 67 W/m2
17:09 64.5 °F 39 °F 29.84 in West 2.9 mph 15 mph 38.9% 0.00 in 56 W/m2
17:14 64.5 °F 39.1 °F 29.85 in WSW 1.7 mph 15 mph 39.1% 0.00 in 51 W/m2
17:19 64.5 °F 39 °F 29.85 in WNW 3 mph 15 mph 39% 0.00 in 53 W/m2
17:24 64.5 °F 38.7 °F 29.85 in WNW 3.8 mph 15 mph 38.6% 0.00 in 60 W/m2
17:29 64.3 °F 38.7 °F 29.85 in West 2.9 mph 15 mph 38.8% 0.00 in 65 W/m2
17:34 64.2 °F 38.8 °F 29.85 in WNW 4.5 mph 17 mph 39.1% 0.00 in 70 W/m2
17:39 63.9 °F 37.9 °F 29.85 in WNW 3.2 mph 17 mph 38.1% 0.00 in 72 W/m2
17:44 63.7 °F 38 °F 29.85 in West 1.7 mph 17 mph 38.7% 0.00 in 70 W/m2
17:49 63.5 °F 38.8 °F 29.85 in WNW 3.1 mph 17 mph 40.1% 0.00 in 70 W/m2
17:54 63.3 °F 38.2 °F 29.85 in WNW 4.4 mph 17 mph 39.5% 0.00 in 83 W/m2
17:59 63.1 °F 37.8 °F 29.86 in WNW 5.5 mph 17 mph 39.1% 0.00 in 86 W/m2
18:04 62.8 °F 37 °F 29.86 in WNW 4.8 mph 17 mph 38.2% 0.00 in 84 W/m2
18:09 62.6 °F 37.5 °F 29.86 in WNW 3.1 mph 13 mph 39.2% 0.00 in 84 W/m2
18:14 62.5 °F 37.5 °F 29.86 in WNW 2.9 mph 13 mph 39.5% 0.00 in 84 W/m2
18:19 62.3 °F 38 °F 29.86 in NW 1.6 mph 13 mph 40.4% 0.00 in 81 W/m2
18:24 62.2 °F 38.1 °F 29.86 in WNW 2 mph 13 mph 40.8% 0.00 in 79 W/m2
18:29 62 °F 37.1 °F 29.86 in West 2.6 mph 13 mph 39.5% 0.00 in 79 W/m2
18:34 61.7 °F 37.5 °F 29.86 in WNW 2.1 mph 13 mph 40.5% 0.00 in 76 W/m2
18:39 61.5 °F 37.1 °F 29.86 in WNW 2 mph 10 mph 40.2% 0.00 in 70 W/m2
18:44 61.3 °F 37.3 °F 29.86 in WNW 3.3 mph 10 mph 40.8% 0.00 in 65 W/m2
18:49 61.1 °F 37.1 °F 29.86 in WNW 4.1 mph 12 mph 40.8% 0.00 in 63 W/m2
18:54 60.9 °F 36.8 °F 29.87 in WNW 3.6 mph 12 mph 40.6% 0.00 in 56 W/m2
18:59 60.7 °F 36.7 °F 29.87 in WNW 2.3 mph 12 mph 40.7% 0.00 in 49 W/m2
19:04 60.5 °F 36.7 °F 29.87 in WNW 3 mph 13 mph 41% 0.00 in 42 W/m2
19:09 60.3 °F 36.4 °F 29.87 in NW 1.8 mph 13 mph 40.8% 0.00 in 37 W/m2
19:14 60.2 °F 36.5 °F 29.88 in WNW 2.3 mph 13 mph 41.2% 0.00 in 33 W/m2
19:19 60 °F 36.5 °F 29.88 in West 1.3 mph 13 mph 41.4% 0.00 in 28 W/m2
19:24 59.8 °F 36.3 °F 29.88 in WNW 2.9 mph 13 mph 41.3% 0.00 in 23 W/m2
19:29 59.7 °F 36.4 °F 29.88 in WNW 2.3 mph 13 mph 41.6% 0.00 in 19 W/m2
19:34 59.6 °F 36.4 °F 29.88 in West 1.8 mph 13 mph 41.9% 0.00 in 16 W/m2
19:39 59.5 °F 36.4 °F 29.88 in West 1.6 mph 9 mph 42% 0.00 in 12 W/m2
19:44 59.3 °F 36.2 °F 29.88 in WNW 0.8 mph 9 mph 42% 0.00 in 7 W/m2
19:49 59.1 °F 36.5 °F 29.88 in WNW 0.4 mph 9 mph 42.7% 0.00 in 5 W/m2
19:54 59 °F 36.5 °F 29.88 in WNW 1.2 mph 9 mph 43% 0.00 in 0 W/m2
19:59 58.8 °F 36.5 °F 29.88 in WNW 1.1 mph 9 mph 43.2% 0.00 in 0 W/m2
20:04 58.5 °F 36.7 °F 29.88 in WNW 0.8 mph 5 mph 44% 0.00 in 0 W/m2
20:09 58.4 °F 36.7 °F 29.88 in WNW 0.5 mph 5 mph 44.2% 0.00 in 0 W/m2
20:13 58.2 °F 36.5 °F 29.88 in WNW 0.6 mph 5 mph 44.1% 0.00 in 0 W/m2
20:19 58.1 °F 36.6 °F 29.88 in WNW 0.5 mph 5 mph 44.5% 0.00 in 0 W/m2
20:23 57.9 °F 36.7 °F 29.88 in WNW 0.2 mph 5 mph 45% 0.00 in 0 W/m2
20:29 57.8 °F 36.6 °F 29.88 in WNW 0.5 mph 6 mph 45% 0.00 in 0 W/m2
20:34 57.7 °F 36.5 °F 29.88 in WNW 0.1 mph 6 mph 45% 0.00 in 0 W/m2
20:39 57.6 °F 36.5 °F 29.89 in Calm   5 mph 45.1% 0.00 in 0 W/m2
20:44 57.5 °F 36.5 °F 29.89 in Calm   5 mph 45.3% 0.00 in 0 W/m2
20:49 57.4 °F 36.7 °F 29.89 in WNW 0.2 mph 5 mph 45.8% 0.00 in 0 W/m2
20:54 57.3 °F 36.7 °F 29.90 in WNW 0.2 mph 5 mph 46% 0.00 in 0 W/m2
20:58 57.2 °F 36.7 °F 29.90 in WNW 0.2 mph 5 mph 46.2% 0.00 in 0 W/m2
21:03 57.1 °F 37 °F 29.90 in WNW 0.1 mph 5 mph 47% 0.00 in 0 W/m2
21:27 56.6 °F 36.6 °F 29.91 in Calm   5 mph 47% 0.00 in 0 W/m2
23:09 54.8 °F 36 °F 29.92 in NW 0.8 mph 6 mph 49% 0.00 in 0 W/m2
23:14 54.8 °F 36 °F 29.92 in NW 0.9 mph 7 mph 49% 0.00 in 0 W/m2
23:19 54.8 °F 36 °F 29.92 in WNW 0.6 mph 7 mph 48.9% 0.00 in 0 W/m2
23:24 54.7 °F 35.9 °F 29.92 in NW 1.3 mph 7 mph 48.9% 0.00 in 0 W/m2
23:29 54.7 °F 35.9 °F 29.92 in NW 0.9 mph 7 mph 49% 0.00 in 0 W/m2
23:34 54.6 °F 35.7 °F 29.92 in NW 2.1 mph 10 mph 48.6% 0.00 in 0 W/m2
23:39 54.6 °F 35.8 °F 29.92 in NW 0.4 mph 10 mph 49% 0.00 in 0 W/m2
23:44 54.6 °F 35.8 °F 29.92 in NW 0.1 mph 10 mph 49% 0.00 in 0 W/m2
23:49 54.5 °F 35.8 °F 29.92 in NW 0.7 mph 10 mph 49% 0.00 in 0 W/m2
23:54 54.4 °F 35.7 °F 29.92 in NW 0.3 mph 10 mph 49% 0.00 in 0 W/m2
23:59 54.3 °F 35.7 °F 29.91 in NW 0.4 mph 10 mph 49.1% 0.00 in 0 W/m2
Hartford County Weather
Compliments of Weather Underground - 4 mb